createdAt,value
2022-08-21T00:01:40.404Z,11.40
2022-08-21T00:04:14.494Z,13.10
2022-08-21T00:06:46.479Z,12.40
2022-08-21T00:09:17.117Z,11.10
2022-08-21T00:11:45.574Z,13.50
2022-08-21T00:14:18.450Z,10.40
2022-08-21T00:16:46.936Z,11.80
2022-08-21T00:19:14.851Z,11.90
2022-08-21T00:21:44.306Z,13.00
2022-08-21T00:24:14.257Z,13.40
2022-08-21T00:26:44.166Z,13.20
2022-08-21T00:29:12.200Z,16.20
2022-08-21T00:34:10.947Z,12.00
2022-08-21T00:36:40.299Z,11.90
2022-08-21T00:39:09.330Z,12.50
2022-08-21T00:41:39.726Z,11.90
2022-08-21T00:44:10.685Z,10.60
2022-08-21T00:46:40.428Z,11.80
2022-08-21T00:49:09.914Z,10.40
2022-08-21T00:51:47.115Z,10.70
2022-08-21T00:54:21.873Z,11.60
2022-08-21T00:56:55.416Z,11.30
2022-08-21T00:59:24.759Z,11.00
2022-08-21T01:01:55.429Z,12.20
2022-08-21T01:04:24.406Z,14.50
2022-08-21T01:09:24.811Z,11.80
2022-08-21T01:11:53.058Z,12.10
2022-08-21T01:14:21.817Z,11.80
2022-08-21T01:16:53.274Z,13.70
2022-08-21T01:19:23.994Z,11.10
2022-08-21T01:21:52.622Z,12.20
2022-08-21T01:24:21.126Z,17.00
2022-08-21T01:26:50.145Z,10.50
2022-08-21T01:29:37.110Z,10.80
2022-08-21T01:32:10.122Z,10.00
2022-08-21T01:34:45.934Z,9.40
2022-08-21T01:37:15.552Z,11.10
2022-08-21T01:39:47.339Z,9.20
2022-08-21T01:42:17.710Z,8.10
2022-08-21T01:44:46.014Z,10.20
2022-08-21T01:49:50.293Z,8.80
2022-08-21T01:52:32.732Z,7.80
2022-08-21T01:55:02.491Z,7.30
2022-08-21T01:57:31.429Z,9.40
2022-08-21T02:00:00.213Z,6.60
2022-08-21T02:02:28.107Z,6.70
2022-08-21T02:04:58.828Z,7.00
2022-08-21T02:07:29.895Z,5.20
2022-08-21T02:09:58.761Z,5.80
2022-08-21T02:12:38.811Z,4.50
2022-08-21T02:15:08.820Z,4.60
2022-08-21T02:17:45.539Z,9.30
2022-08-21T02:20:31.148Z,5.00
2022-08-21T02:22:59.706Z,4.00
2022-08-21T02:25:29.562Z,4.30
2022-08-21T02:28:00.113Z,7.00
2022-08-21T02:30:33.615Z,4.80
2022-08-21T02:33:02.193Z,7.10
2022-08-21T02:35:30.886Z,4.40
2022-08-21T02:38:07.406Z,4.80
2022-08-21T02:40:43.867Z,3.70
2022-08-21T02:43:21.840Z,4.60
2022-08-21T02:45:51.402Z,4.90
2022-08-21T02:48:24.214Z,4.10
2022-08-21T02:50:59.656Z,4.10
2022-08-21T02:53:28.634Z,5.50
2022-08-21T02:58:29.461Z,5.60
2022-08-21T03:00:59.344Z,4.30
2022-08-21T03:03:29.414Z,4.10
2022-08-21T03:05:58.836Z,4.90
2022-08-21T03:08:29.611Z,4.20
2022-08-21T03:10:59.943Z,4.20
2022-08-21T03:13:33.008Z,4.90
2022-08-21T03:16:01.278Z,4.50
2022-08-21T03:18:29.685Z,5.70
2022-08-21T03:20:57.686Z,5.60
2022-08-21T03:23:26.430Z,4.00
2022-08-21T03:26:01.451Z,5.40
2022-08-21T03:28:30.132Z,3.80
2022-08-21T03:30:58.771Z,6.30
2022-08-21T03:33:28.468Z,4.20
2022-08-21T03:36:02.954Z,5.70
2022-08-21T03:38:37.188Z,4.40
2022-08-21T03:41:06.949Z,5.80
2022-08-21T03:43:37.745Z,4.70
2022-08-21T03:46:08.201Z,5.20
2022-08-21T03:48:37.974Z,4.40
2022-08-21T03:51:07.724Z,5.80
2022-08-21T03:53:36.050Z,5.40
2022-08-21T03:56:05.641Z,4.40
2022-08-21T03:58:33.597Z,5.30
2022-08-21T04:01:05.831Z,3.80
2022-08-21T04:03:39.221Z,4.80
2022-08-21T04:06:08.859Z,3.80
2022-08-21T04:08:39.175Z,4.30
2022-08-21T04:11:08.765Z,5.30
2022-08-21T04:13:44.374Z,4.50
2022-08-21T04:16:14.092Z,4.50
2022-08-21T04:18:46.058Z,4.50
2022-08-21T04:21:14.906Z,5.10
2022-08-21T04:23:44.681Z,3.50
2022-08-21T04:26:13.320Z,4.00
2022-08-21T04:28:41.243Z,3.30
2022-08-21T04:31:13.267Z,2.50
2022-08-21T04:33:44.102Z,2.70
2022-08-21T04:36:12.841Z,2.70
2022-08-21T04:38:44.552Z,3.70
2022-08-21T04:41:13.707Z,3.30
2022-08-21T04:46:13.550Z,5.10
2022-08-21T04:49:02.785Z,2.40
2022-08-21T04:51:35.573Z,2.50
2022-08-21T04:54:17.571Z,2.50
2022-08-21T04:56:48.461Z,4.00
2022-08-21T04:59:27.439Z,2.50
2022-08-21T05:04:31.821Z,3.00
2022-08-21T05:07:06.306Z,2.90
2022-08-21T05:09:35.688Z,2.60
2022-08-21T05:12:04.101Z,2.60
2022-08-21T05:14:32.338Z,3.10
2022-08-21T05:17:00.969Z,2.60
2022-08-21T05:19:31.605Z,2.60
2022-08-21T05:22:00.331Z,2.00
2022-08-21T05:24:29.230Z,2.20
2022-08-21T05:27:00.493Z,2.70
2022-08-21T05:29:34.898Z,3.20
2022-08-21T05:32:10.197Z,2.80
2022-08-21T05:34:39.395Z,2.80
2022-08-21T05:37:11.932Z,3.80
2022-08-21T05:40:05.272Z,2.90
2022-08-21T05:44:57.515Z,2.80
2022-08-21T05:47:26.349Z,3.90
2022-08-21T05:52:28.329Z,3.50
2022-08-21T05:54:57.955Z,3.10
2022-08-21T05:57:26.586Z,2.60
2022-08-21T05:59:55.367Z,3.10
2022-08-21T06:02:23.658Z,3.70
2022-08-21T06:04:52.097Z,6.40
2022-08-21T06:07:20.314Z,4.50
2022-08-21T06:09:49.509Z,3.80
2022-08-21T06:12:18.458Z,7.90
2022-08-21T06:14:46.881Z,5.70
2022-08-21T06:17:16.150Z,3.00
2022-08-21T06:19:45.161Z,7.20
2022-08-21T06:22:14.745Z,8.00
2022-08-21T06:24:43.734Z,7.90
2022-08-21T06:27:12.029Z,9.60
2022-08-21T06:29:44.384Z,9.40
2022-08-21T06:32:14.091Z,13.20
2022-08-21T06:34:44.549Z,5.10
2022-08-21T06:37:12.793Z,7.00
2022-08-21T06:39:45.137Z,9.20
2022-08-21T06:42:17.979Z,8.50
2022-08-21T06:44:46.915Z,10.10
2022-08-21T06:47:15.464Z,20.10
2022-08-21T06:49:43.537Z,10.20
2022-08-21T06:52:17.628Z,7.50
2022-08-21T06:54:45.789Z,19.70
2022-08-21T06:57:14.461Z,28.10
2022-08-21T06:59:42.478Z,15.30
2022-08-21T07:02:10.731Z,7.00
2022-08-21T07:04:39.051Z,8.80
2022-08-21T07:07:07.020Z,16.30
2022-08-21T07:09:35.179Z,9.90
2022-08-21T07:12:04.586Z,10.10
2022-08-21T07:17:00.761Z,10.20
2022-08-21T07:19:30.008Z,12.10
2022-08-21T07:24:28.298Z,10.90
2022-08-21T07:26:56.272Z,13.00
2022-08-21T07:29:25.733Z,7.40
2022-08-21T07:31:53.578Z,9.90
2022-08-21T07:34:21.648Z,9.30
2022-08-21T07:36:50.115Z,9.00
2022-08-21T07:39:18.969Z,9.20
2022-08-21T07:41:46.759Z,10.30
2022-08-21T07:44:16.335Z,11.40
2022-08-21T07:46:47.313Z,10.30
2022-08-21T07:49:22.061Z,10.50
2022-08-21T07:51:50.306Z,7.50
2022-08-21T07:54:18.399Z,7.70
2022-08-21T07:56:56.162Z,6.30
2022-08-21T07:59:23.983Z,9.60
2022-08-21T08:04:25.792Z,14.90
2022-08-21T08:06:54.224Z,9.90
2022-08-21T08:09:22.587Z,9.50
2022-08-21T08:11:50.608Z,7.80
2022-08-21T08:14:18.800Z,6.20
2022-08-21T08:16:46.603Z,7.00
2022-08-21T08:19:14.630Z,7.80
2022-08-21T08:21:43.496Z,8.00
2022-08-21T08:24:18.698Z,7.00
2022-08-21T08:26:53.801Z,4.30
2022-08-21T08:29:23.466Z,5.80
2022-08-21T08:31:51.862Z,5.80
2022-08-21T08:34:25.417Z,6.20
2022-08-21T08:36:54.268Z,5.20
2022-08-21T08:39:26.941Z,5.20
2022-08-21T08:42:32.038Z,5.50
2022-08-21T08:45:11.729Z,5.30
2022-08-21T08:47:45.606Z,5.00
2022-08-21T08:50:22.559Z,4.60
2022-08-21T08:52:55.835Z,6.00
2022-08-21T08:55:46.902Z,6.00
2022-08-21T08:58:26.251Z,7.10
2022-08-21T09:00:56.448Z,6.40
2022-08-21T09:03:26.579Z,5.80
2022-08-21T09:06:22.092Z,7.10
2022-08-21T09:09:25.116Z,7.00
2022-08-21T09:12:11.955Z,7.30
2022-08-21T09:14:59.038Z,6.10
2022-08-21T09:17:47.633Z,5.70
2022-08-21T09:20:34.603Z,4.70
2022-08-21T09:23:37.351Z,5.20
2022-08-21T09:26:14.523Z,5.00
2022-08-21T09:28:43.576Z,6.40
2022-08-21T09:31:30.051Z,4.60
2022-08-21T09:34:04.251Z,4.50
2022-08-21T09:36:52.591Z,4.60
2022-08-21T09:39:28.319Z,4.90
2022-08-21T09:42:05.242Z,5.80
2022-08-21T09:44:42.449Z,5.00
2022-08-21T09:47:26.741Z,4.70
2022-08-21T09:49:55.116Z,5.50
2022-08-21T09:52:26.689Z,4.40
2022-08-21T09:54:58.741Z,4.20
2022-08-21T09:57:42.869Z,4.20
2022-08-21T10:00:26.917Z,4.20
2022-08-21T10:02:55.129Z,4.10
2022-08-21T10:05:29.478Z,3.60
2022-08-21T10:07:57.988Z,4.00
2022-08-21T10:10:37.384Z,4.50
2022-08-21T10:13:22.150Z,4.00
2022-08-21T10:16:07.639Z,4.00
2022-08-21T10:19:24.618Z,3.50
2022-08-21T10:22:03.983Z,5.30
2022-08-21T10:24:45.961Z,3.30
2022-08-21T10:27:34.401Z,4.70
2022-08-21T10:30:14.761Z,4.80
2022-08-21T10:32:56.925Z,4.30
2022-08-21T10:35:37.915Z,4.50
2022-08-21T10:38:48.750Z,5.00
2022-08-21T10:41:28.438Z,3.70
2022-08-21T10:44:10.471Z,5.70
2022-08-21T10:47:04.532Z,3.40
2022-08-21T10:49:57.859Z,4.40
2022-08-21T10:52:44.454Z,4.80
2022-08-21T10:55:21.491Z,6.10
2022-08-21T10:57:59.822Z,5.70
2022-08-21T11:00:35.053Z,4.50
2022-08-21T11:03:11.649Z,7.90
2022-08-21T11:05:50.557Z,5.60
2022-08-21T11:08:24.303Z,4.90
2022-08-21T11:11:08.223Z,6.10
2022-08-21T11:13:59.810Z,4.30
2022-08-21T11:16:41.327Z,5.80
2022-08-21T11:19:18.101Z,5.50
2022-08-21T11:21:53.528Z,6.10
2022-08-21T11:24:34.038Z,5.20
2022-08-21T11:27:16.247Z,6.60
2022-08-21T11:29:55.054Z,5.90
2022-08-21T11:32:34.411Z,4.40
2022-08-21T11:35:18.693Z,5.50
2022-08-21T11:37:46.718Z,6.20
2022-08-21T11:40:38.177Z,5.10
2022-08-21T11:43:43.593Z,5.80
2022-08-21T11:46:14.801Z,6.20
2022-08-21T11:49:00.510Z,6.40
2022-08-21T11:52:08.188Z,5.90
2022-08-21T11:54:38.649Z,6.30
2022-08-21T11:57:19.650Z,4.00
2022-08-21T12:00:11.917Z,4.30
2022-08-21T12:02:49.826Z,5.50
2022-08-21T12:05:32.368Z,6.30
2022-08-21T12:08:46.982Z,4.50
2022-08-21T12:11:17.890Z,5.80
2022-08-21T12:14:06.956Z,5.20
2022-08-21T12:16:43.600Z,4.10
2022-08-21T12:19:30.698Z,3.80
2022-08-21T12:21:58.900Z,4.60
2022-08-21T12:24:54.157Z,4.80
2022-08-21T12:27:31.157Z,5.60
2022-08-21T12:30:20.112Z,5.10
2022-08-21T12:33:00.629Z,4.80
2022-08-21T12:35:39.687Z,7.00
2022-08-21T12:38:09.697Z,6.40
2022-08-21T12:41:16.112Z,4.10
2022-08-21T12:43:56.094Z,4.70
2022-08-21T12:46:35.489Z,6.00
2022-08-21T12:49:20.283Z,4.00
2022-08-21T12:52:15.507Z,6.40
2022-08-21T12:54:45.282Z,5.60
2022-08-21T12:57:25.578Z,5.70
2022-08-21T12:59:56.064Z,7.60
2022-08-21T13:02:29.570Z,5.10
2022-08-21T13:05:03.985Z,5.80
2022-08-21T13:07:35.911Z,5.10
2022-08-21T13:10:06.166Z,6.20
2022-08-21T13:12:36.745Z,5.50
2022-08-21T13:15:08.387Z,5.40
2022-08-21T13:17:40.391Z,6.80
2022-08-21T13:20:24.670Z,4.70
2022-08-21T13:22:52.771Z,6.50
2022-08-21T13:25:26.574Z,4.90
2022-08-21T13:28:17.395Z,6.80
2022-08-21T13:30:55.991Z,5.50
2022-08-21T13:33:37.791Z,5.50
2022-08-21T13:36:12.738Z,5.20
2022-08-21T13:38:45.391Z,6.20
2022-08-21T13:41:28.354Z,6.70
2022-08-21T13:44:19.987Z,6.00
2022-08-21T13:46:51.163Z,5.20
2022-08-21T13:49:24.346Z,6.10
2022-08-21T13:51:53.343Z,7.00
2022-08-21T13:54:28.704Z,4.60
2022-08-21T13:56:57.499Z,5.60
2022-08-21T13:59:31.020Z,6.00
2022-08-21T14:02:09.211Z,5.40
2022-08-21T14:04:44.200Z,4.70
2022-08-21T14:07:36.659Z,5.80
2022-08-21T14:10:20.533Z,6.80
2022-08-21T14:12:56.286Z,6.20
2022-08-21T14:15:29.996Z,5.60
2022-08-21T14:18:15.929Z,4.40
2022-08-21T14:20:44.923Z,6.80
2022-08-21T14:23:24.770Z,6.10
2022-08-21T14:25:54.016Z,5.30
2022-08-21T14:28:29.225Z,4.70
2022-08-21T14:30:58.415Z,6.70
2022-08-21T14:33:32.453Z,5.70
2022-08-21T14:36:02.084Z,5.00
2022-08-21T14:38:30.528Z,5.40
2022-08-21T14:41:17.154Z,5.10
2022-08-21T14:43:47.395Z,5.80
2022-08-21T14:46:27.255Z,4.40
2022-08-21T14:48:55.534Z,5.30
2022-08-21T14:51:23.644Z,4.80
2022-08-21T14:53:51.990Z,5.90
2022-08-21T14:56:21.104Z,4.70
2022-08-21T14:58:51.123Z,5.60
2022-08-21T15:01:21.737Z,5.30
2022-08-21T15:03:49.767Z,4.70
2022-08-21T15:06:18.652Z,6.50
2022-08-21T15:08:47.051Z,4.80
2022-08-21T15:11:41.966Z,5.20
2022-08-21T15:14:12.038Z,5.60
2022-08-21T15:16:41.035Z,5.30
2022-08-21T15:21:37.484Z,8.80
2022-08-21T15:24:05.997Z,6.40
2022-08-21T15:26:36.032Z,7.10
2022-08-21T15:29:06.785Z,6.70
2022-08-21T15:31:36.166Z,4.70
2022-08-21T15:34:04.511Z,6.80
2022-08-21T15:36:32.749Z,5.40
2022-08-21T15:39:01.078Z,6.70
2022-08-21T15:41:30.614Z,7.20
2022-08-21T15:43:58.504Z,6.50
2022-08-21T15:46:26.853Z,6.40
2022-08-21T15:48:59.677Z,7.70
2022-08-21T15:51:27.994Z,6.70
2022-08-21T15:53:58.727Z,6.00
2022-08-21T15:56:33.473Z,7.10
2022-08-21T15:59:13.279Z,6.10
2022-08-21T16:01:44.795Z,5.00
2022-08-21T16:04:23.412Z,8.50
2022-08-21T16:06:55.314Z,6.70
2022-08-21T16:09:27.286Z,6.00
2022-08-21T16:11:55.310Z,5.80
2022-08-21T16:14:23.276Z,6.30
2022-08-21T16:16:53.173Z,6.70
2022-08-21T16:19:22.202Z,6.50
2022-08-21T16:21:50.228Z,5.60
2022-08-21T16:24:18.070Z,8.60
2022-08-21T16:26:46.493Z,4.40
2022-08-21T16:29:31.911Z,4.90
2022-08-21T16:32:00.605Z,7.00
2022-08-21T16:34:28.688Z,5.20
2022-08-21T16:36:56.716Z,4.30
2022-08-21T16:39:27.391Z,4.90
2022-08-21T16:41:56.406Z,4.70
2022-08-21T16:44:24.353Z,5.00
2022-08-21T16:46:52.865Z,5.10
2022-08-21T16:49:20.686Z,4.90
2022-08-21T16:51:49.033Z,3.90
2022-08-21T16:54:17.915Z,5.00
2022-08-21T16:56:47.892Z,6.70
2022-08-21T16:59:31.212Z,4.10
2022-08-21T17:02:03.333Z,3.60
2022-08-21T17:04:52.555Z,4.20
2022-08-21T17:07:33.066Z,3.70
2022-08-21T17:10:06.399Z,3.60
2022-08-21T17:12:36.810Z,4.60
2022-08-21T17:17:46.498Z,3.10
2022-08-21T17:20:18.831Z,4.30
2022-08-21T17:22:47.127Z,2.70
2022-08-21T17:25:17.360Z,3.40
2022-08-21T17:28:01.941Z,2.80
2022-08-21T17:30:30.208Z,2.80
2022-08-21T17:33:27.645Z,4.00
2022-08-21T17:35:56.652Z,3.20
2022-08-21T17:40:58.722Z,2.70
2022-08-21T17:43:27.531Z,4.20
2022-08-21T17:46:01.594Z,3.40
2022-08-21T17:48:37.323Z,3.30
2022-08-21T17:51:09.510Z,2.90
2022-08-21T17:53:39.727Z,3.40
2022-08-21T17:56:13.812Z,4.20
2022-08-21T17:58:55.209Z,2.90
2022-08-21T18:01:27.824Z,2.60
2022-08-21T18:03:56.385Z,6.10
2022-08-21T18:06:27.438Z,3.70
2022-08-21T18:09:00.376Z,3.40
2022-08-21T18:11:37.490Z,3.30
2022-08-21T18:14:18.741Z,2.50
2022-08-21T18:16:47.049Z,4.30
2022-08-21T18:19:23.412Z,4.20
2022-08-21T18:21:55.831Z,3.80
2022-08-21T18:24:24.204Z,2.80
2022-08-21T18:26:58.565Z,3.50
2022-08-21T18:29:36.703Z,3.50
2022-08-21T18:35:05.541Z,2.90
2022-08-21T18:37:34.511Z,4.10
2022-08-21T18:42:58.360Z,5.60
2022-08-21T18:45:31.547Z,3.10
2022-08-21T18:47:59.892Z,5.60
2022-08-21T18:50:29.625Z,3.60
2022-08-21T18:52:58.858Z,5.60
2022-08-21T18:55:33.688Z,2.90
2022-08-21T18:58:05.538Z,3.80
2022-08-21T19:00:45.954Z,5.00
2022-08-21T19:03:19.996Z,4.10
2022-08-21T19:05:53.631Z,4.50
2022-08-21T19:08:25.226Z,4.20
2022-08-21T19:10:58.961Z,3.70
2022-08-21T19:13:31.084Z,4.70
2022-08-21T19:16:03.868Z,4.90
2022-08-21T19:18:42.782Z,3.20
2022-08-21T19:21:11.074Z,3.70
2022-08-21T19:26:30.213Z,4.90
2022-08-21T19:29:07.220Z,3.70
2022-08-21T19:31:41.828Z,6.90
2022-08-21T19:34:20.646Z,4.20
2022-08-21T19:36:52.510Z,4.40
2022-08-21T19:39:34.745Z,5.20
2022-08-21T19:42:15.587Z,4.40
2022-08-21T19:44:57.648Z,4.60
2022-08-21T19:47:30.725Z,4.10
2022-08-21T19:50:04.597Z,4.40
2022-08-21T19:52:55.379Z,5.10
2022-08-21T19:55:26.686Z,4.50
2022-08-21T19:58:06.248Z,5.40
2022-08-21T20:00:47.335Z,4.00
2022-08-21T20:03:15.510Z,7.10
2022-08-21T20:05:44.851Z,6.10
2022-08-21T20:08:28.090Z,4.50
2022-08-21T20:11:10.302Z,4.10
2022-08-21T20:13:55.609Z,5.20
2022-08-21T20:16:24.322Z,4.80
2022-08-21T20:19:03.318Z,5.50
2022-08-21T20:21:43.733Z,6.70
2022-08-21T20:24:18.381Z,6.80
2022-08-21T20:26:50.796Z,4.90
2022-08-21T20:29:23.942Z,6.80
2022-08-21T20:31:57.121Z,6.60
2022-08-21T20:34:29.380Z,6.20
2022-08-21T20:37:01.876Z,4.80
2022-08-21T20:39:39.339Z,4.40
2022-08-21T20:42:11.935Z,3.60
2022-08-21T20:44:51.608Z,6.60
2022-08-21T20:47:20.117Z,7.80
2022-08-21T20:49:59.476Z,5.50
2022-08-21T20:52:35.180Z,4.70
2022-08-21T20:55:13.842Z,4.70
2022-08-21T20:58:03.374Z,4.90
2022-08-21T21:00:38.605Z,6.70
2022-08-21T21:03:30.250Z,6.80
2022-08-21T21:06:22.721Z,5.80
2022-08-21T21:09:28.905Z,5.00
2022-08-21T21:12:07.929Z,6.30
2022-08-21T21:14:45.163Z,4.50
2022-08-21T21:17:50.888Z,7.60
2022-08-21T21:20:49.642Z,6.70
2022-08-21T21:23:27.380Z,4.70
2022-08-21T21:26:22.391Z,5.00
2022-08-21T21:29:29.829Z,4.90
2022-08-21T21:32:17.955Z,4.00
2022-08-21T21:34:51.113Z,6.10
2022-08-21T21:37:59.319Z,7.90
2022-08-21T21:40:42.198Z,5.00
2022-08-21T21:43:24.235Z,8.90
2022-08-21T21:46:34.590Z,5.40
2022-08-21T21:49:28.503Z,6.60
2022-08-21T21:52:42.480Z,5.20
2022-08-21T21:55:40.507Z,6.10
2022-08-21T21:58:36.911Z,6.30
2022-08-21T22:01:38.789Z,6.00
2022-08-21T22:04:28.528Z,8.30
2022-08-21T22:07:45.241Z,5.00
2022-08-21T22:10:47.938Z,6.60
2022-08-21T22:13:38.688Z,7.40
2022-08-21T22:16:20.040Z,8.20
2022-08-21T22:19:27.375Z,6.60
2022-08-21T22:22:23.898Z,3.90
2022-08-21T22:25:01.403Z,7.50
2022-08-21T22:27:39.406Z,7.10
2022-08-21T22:30:19.155Z,5.10
2022-08-21T22:32:50.352Z,4.50
2022-08-21T22:35:33.018Z,4.40
2022-08-21T22:38:20.619Z,5.30
2022-08-21T22:41:13.165Z,6.60
2022-08-21T22:47:03.567Z,7.10
2022-08-21T22:49:49.755Z,7.40
2022-08-21T22:52:37.470Z,5.30
2022-08-21T22:55:46.015Z,5.80
2022-08-21T22:58:42.279Z,8.00
2022-08-21T23:01:44.392Z,6.90
2022-08-21T23:04:25.363Z,5.10
2022-08-21T23:07:06.605Z,5.90
2022-08-21T23:10:03.289Z,7.70
2022-08-21T23:12:48.809Z,8.50
2022-08-21T23:15:36.151Z,8.80
2022-08-21T23:18:35.078Z,7.00
2022-08-21T23:21:09.702Z,7.00
2022-08-21T23:24:01.749Z,6.40
2022-08-21T23:26:38.014Z,7.50
2022-08-21T23:29:55.314Z,7.40
2022-08-21T23:33:29.258Z,5.70
2022-08-21T23:36:28.335Z,6.60
2022-08-21T23:39:20.525Z,7.30
2022-08-21T23:42:20.880Z,5.80
2022-08-21T23:45:48.875Z,6.70
2022-08-21T23:49:17.650Z,4.10
2022-08-21T23:52:11.406Z,5.60
2022-08-21T23:55:19.022Z,5.00
2022-08-21T23:58:18.454Z,6.20
